Flight Track Log - Related Links

Times and Time Zones

All times are in EST time to prevent confusion due to time zone crossing. See the N7711 flight status page for this flight to view local times or setup timezone preferences in your user account.

Time Position Orientation Groundspeed Altitude Reporting Facility
EST Latitude Longitude Course Direction KTS MPH feet Rate Location/Type
Thu 12:26:57 PM 40.8000 -73.1333 360° North 82 94 1,300  Level New York TRACON
Thu 12:27:57 PM 40.8167 -73.1333 360° North 114 131 1,700 500 Climbing New York TRACON
Thu 12:28:57 PM 40.8500 -73.1333 360° North 120 138 2,300 500 Climbing New York TRACON
Thu 12:29:57 PM 40.8833 -73.1167 21° North 131 151 2,700 150 Climbing New York TRACON
Thu 12:30:57 PM 40.9167 -73.0667 49° Northeast 174 200 2,600 -100 Descending New York TRACON
Thu 12:31:57 PM 40.9333 -73.0167 66° East 178 205 2,500 -50 Descending New York TRACON
Thu 12:32:57 PM 40.9333 -72.9500 90° East 175 201 2,500  Level New York TRACON
Thu 12:33:52 PM 40.9500 -72.8833 72° East 174 200 2,500  Level New York TRACON
Thu 12:34:57 PM 40.9500 -72.8167 90° East 172 198 2,500  Level New York TRACON
Thu 12:35:57 PM 40.9667 -72.7667 66° East 172 198 2,500  Level New York TRACON
Thu 12:37:00 PM 40.9906 -72.7137 59° Northeast  Level FlightAware Approximate
Thu 12:44:00 PM 41.1493 -72.3597 59° Northeast  Level FlightAware Approximate
Thu 12:45:00 PM 41.1719 -72.3090 59° Northeast  Level FlightAware Approximate
Thu 12:46:00 PM 41.1927 -72.2537 67° East  Level FlightAware Approximate
Thu 12:47:00 PM 41.2100 -72.1994 67° East  Level FlightAware Approximate
Thu 12:48:00 PM 41.2272 -72.1450 67° East  Level FlightAware Approximate
Thu 12:49:00 PM 41.2443 -72.0906 67° East  Level FlightAware Approximate
Thu 12:50:00 PM 41.2615 -72.0362 67° East  Level FlightAware Approximate
Thu 12:51:00 PM 41.2786 -71.9818 67° East  Level FlightAware Approximate
Thu 12:52:00 PM 41.2952 -71.9270 68° East  Level FlightAware Approximate
Thu 12:53:00 PM 41.3117 -71.8722 68° East  Level FlightAware Approximate
Thu 12:54:00 PM 41.3282 -71.8173 68° East  Level FlightAware Approximate
Thu 12:55:00 PM 41.3333 -71.8000 68° East  Level FlightAware Approximate
Thu 12:56:00 PM 41.3496 -71.8034 68° East  Level Estimated
Thu 12:57:00 PM 41.3496 -71.8034 68° East  Level Estimated
Thu 12:58:00 PM 41.3496 -71.8034 68° East  Level Estimated
Thu 12:59:00 PM 41.3496 -71.8034 68° East  Level Estimated
Thu 01:00:00 PM 41.3496 -71.8034 68° East  Level Estimated
Thu 01:01:00 PM 41.3496 -71.8034 68° East  Level Estimated
Thu 01:02:00 PM 41.3496 -71.8034 68° East  Level Estimated

Login

Don't have an account? Register now (free) for customized features, flight alerts, and more!